Time;durP1;ratioP1;P1;durP2;ratioP2;P2;SDS_P1;SDS_P2;PMS_P1;PMS_P2;Temp;Humidity;BMP_temperature;BMP_pressure;BME280_temperature;BME280_humidity;BME280_pressure;Samples;Min_cycle;Max_cycle;Signal;HPM_P1;HPM_P2
2023/01/06 00:01:43;;;;;;;6.80;1.93;;;6.30;99.90;;;;;;6120223;23;20439;-58
2023/01/06 00:04:11;;;;;;;4.90;2.67;;;6.40;99.90;;;;;;6120208;23;20423;-59
2023/01/06 00:06:38;;;;;;;9.03;2.10;;;6.40;99.90;;;;;;6119428;23;20418;-53
2023/01/06 00:09:05;;;;;;;11.27;2.63;;;6.50;99.90;;;;;;6119488;23;20407;-59
2023/01/06 00:11:32;;;;;;;8.60;2.70;;;6.50;99.90;;;;;;6109855;23;20403;-57
2023/01/06 00:13:59;;;;;;;5.07;1.87;;;6.60;99.90;;;;;;6119621;23;20427;-59
2023/01/06 00:16:26;;;;;;;4.70;2.23;;;6.60;99.90;;;;;;6119304;23;20414;-55
2023/01/06 00:18:57;;;;;;;5.50;2.27;;;6.60;99.90;;;;;;6119524;23;20435;-54
2023/01/06 00:21:26;;;;;;;4.50;2.00;;;6.70;99.90;;;;;;6119786;23;20427;-57
2023/01/06 00:23:53;;;;;;;5.70;1.90;;;6.70;99.90;;;;;;6120176;23;20482;-57
2023/01/06 00:26:20;;;;;;;5.57;1.80;;;6.70;99.90;;;;;;6120439;23;20391;-57
2023/01/06 00:28:53;;;;;;;8.00;2.50;;;6.80;99.90;;;;;;6120065;23;20419;-57
2023/01/06 00:31:19;;;;;;;5.37;1.90;;;6.80;99.90;;;;;;6120390;23;20411;-53
2023/01/06 00:33:46;;;;;;;3.67;1.37;;;6.70;99.90;;;;;;6120563;23;20403;-55
2023/01/06 00:36:14;;;;;;;3.10;1.20;;;6.70;99.90;;;;;;6121111;23;20407;-59
2023/01/06 00:38:43;;;;;;;2.43;1.63;;;6.80;99.90;;;;;;6121049;23;20387;-60
2023/01/06 00:43:52;;;;;;;2.13;1.27;;;6.80;99.90;;;;;;6120523;23;20410;-58
2023/01/06 00:46:19;;;;;;;2.43;1.20;;;6.80;99.90;;;;;;6115820;23;20384;-58
2023/01/06 00:48:46;;;;;;;3.50;1.93;;;6.80;99.90;;;;;;6120528;23;20463;-56
2023/01/06 00:51:13;;;;;;;2.03;1.53;;;6.70;99.90;;;;;;6119584;23;20416;-57
2023/01/06 00:53:40;;;;;;;2.53;1.60;;;6.70;99.90;;;;;;6119319;23;20414;-59
2023/01/06 00:56:08;;;;;;;4.67;2.53;;;6.70;99.90;;;;;;6119623;23;20423;-58
2023/01/06 00:58:35;;;;;;;2.23;1.60;;;6.70;99.90;;;;;;6119339;23;20407;-56
2023/01/06 01:01:05;;;;;;;3.40;1.70;;;6.70;99.90;;;;;;6119530;23;20459;-59
2023/01/06 01:03:32;;;;;;;4.77;1.80;;;6.70;99.90;;;;;;6120062;23;20409;-59
2023/01/06 01:06:00;;;;;;;9.03;2.67;;;6.60;99.90;;;;;;6119547;23;20431;-55
2023/01/06 01:08:27;;;;;;;5.43;2.07;;;6.50;99.90;;;;;;6121741;23;20399;-57
2023/01/06 01:10:54;;;;;;;3.03;1.63;;;6.60;99.90;;;;;;6121699;23;20415;-57
2023/01/06 01:13:22;;;;;;;4.30;2.43;;;6.60;99.90;;;;;;6112380;23;20404;-57
2023/01/06 01:15:50;;;;;;;2.50;1.77;;;6.50;99.90;;;;;;6114704;23;20403;-58
2023/01/06 01:18:16;;;;;;;8.20;3.17;;;6.50;99.90;;;;;;6121294;23;20408;-59
2023/01/06 01:20:46;;;;;;;1.90;1.70;;;6.50;99.90;;;;;;6121020;23;20423;-60
2023/01/06 01:23:12;;;;;;;7.93;2.10;;;6.50;99.90;;;;;;6121192;23;20440;-59
2023/01/06 01:25:40;;;;;;;7.50;1.90;;;6.50;99.90;;;;;;6122193;23;20415;-59
2023/01/06 01:28:07;;;;;;;5.13;2.60;;;6.50;99.90;;;;;;6121742;23;20436;-59
2023/01/06 01:30:35;;;;;;;3.83;2.30;;;6.50;99.90;;;;;;6121508;23;20387;-58
2023/01/06 01:33:02;;;;;;;4.17;2.17;;;6.50;99.90;;;;;;6120864;23;20431;-59
2023/01/06 01:35:29;;;;;;;1.50;1.30;;;6.50;99.90;;;;;;6120926;23;20395;-59
2023/01/06 01:37:56;;;;;;;3.33;2.27;;;6.50;99.90;;;;;;6120309;23;20415;-58
2023/01/06 01:40:23;;;;;;;4.97;2.50;;;6.50;99.90;;;;;;6120776;23;20392;-59
2023/01/06 01:42:51;;;;;;;4.03;2.50;;;6.50;99.90;;;;;;6122064;23;20384;-57
2023/01/06 01:45:24;;;;;;;5.80;2.20;;;6.50;99.90;;;;;;6120407;23;20483;-58
2023/01/06 01:47:56;;;;;;;4.17;2.20;;;6.50;99.90;;;;;;6121332;23;20392;-60
2023/01/06 01:50:36;;;;;;;5.80;2.60;;;6.50;99.90;;;;;;6121661;23;20400;-58
2023/01/06 01:53:07;;;;;;;4.60;2.30;;;6.50;99.90;;;;;;6106851;23;20419;-59
2023/01/06 01:55:35;;;;;;;3.60;1.60;;;6.50;99.90;;;;;;6122124;23;20392;-60
2023/01/06 01:58:06;;;;;;;2.30;2.10;;;6.50;99.90;;;;;;6120932;23;20811;-59
2023/01/06 02:00:34;;;;;;;3.00;1.57;;;6.50;99.90;;;;;;6121160;23;20427;-58
2023/01/06 02:03:03;;;;;;;2.50;1.57;;;6.60;99.90;;;;;;6122306;23;20407;-58
2023/01/06 02:05:32;;;;;;;5.43;1.50;;;6.60;99.90;;;;;;6121708;23;20479;-60
2023/01/06 02:08:02;;;;;;;2.07;1.10;;;6.60;99.90;;;;;;6121333;23;20404;-55
2023/01/06 02:10:29;;;;;;;2.73;1.63;;;6.60;99.90;;;;;;6120391;23;20432;-60
2023/01/06 02:12:59;;;;;;;3.10;1.40;;;6.70;99.90;;;;;;6120850;23;20391;-57
2023/01/06 02:15:28;;;;;;;1.60;1.00;;;6.70;99.90;;;;;;6120994;23;20438;-59
2023/01/06 02:18:29;;;;;;;1.97;1.23;;;6.70;99.90;;;;;;6120151;23;20403;-59
2023/01/06 02:21:11;;;;;;;2.30;1.00;;;6.70;99.90;;;;;;6119625;23;20427;-60
2023/01/06 02:24:25;;;;;;;2.87;1.37;;;6.60;99.90;;;;;;6121381;23;20372;-58
2023/01/06 02:27:26;;;;;;;5.70;1.10;;;6.60;99.90;;;;;;6120569;23;20427;-60
2023/01/06 02:30:27;;;;;;;2.17;1.00;;;6.60;99.90;;;;;;6113697;23;20412;-57
2023/01/06 02:33:09;;;;;;;2.70;1.70;;;6.60;99.90;;;;;;6120046;23;20423;-55
2023/01/06 02:35:58;;;;;;;1.90;1.20;;;6.60;99.90;;;;;;6120394;23;20392;-60
2023/01/06 02:38:44;;;;;;;3.63;1.30;;;6.60;99.90;;;;;;6118081;23;20408;-58
2023/01/06 02:41:27;;;;;;;2.37;1.40;;;6.60;99.90;;;;;;6121373;23;20431;-59
2023/01/06 02:44:02;;;;;;;1.63;1.00;;;6.50;99.90;;;;;;6122498;23;20380;-56
2023/01/06 02:46:48;;;;;;;2.97;1.50;;;6.50;99.90;;;;;;6122509;23;20399;-59
2023/01/06 02:49:27;;;;;;;2.43;1.13;;;6.50;99.90;;;;;;6121704;23;20415;-59
2023/01/06 02:52:00;;;;;;;8.70;1.53;;;6.50;99.90;;;;;;6122146;23;20395;-52
2023/01/06 02:54:36;;;;;;;4.73;1.73;;;6.40;99.90;;;;;;6122219;23;20383;-52
2023/01/06 02:57:10;;;;;;;3.13;1.90;;;6.50;99.90;;;;;;6122193;23;20387;-58
2023/01/06 02:59:41;;;;;;;2.60;1.17;;;6.50;99.90;;;;;;6122232;23;20403;-56
2023/01/06 03:02:10;;;;;;;3.50;2.07;;;6.50;99.90;;;;;;6122079;23;20914;-58
2023/01/06 03:04:42;;;;;;;4.93;2.40;;;6.50;99.90;;;;;;6122470;23;20482;-55
2023/01/06 03:07:11;;;;;;;2.27;1.77;;;6.50;99.90;;;;;;6121811;23;20407;-58
2023/01/06 03:09:38;;;;;;;2.53;1.40;;;6.40;99.90;;;;;;6120549;23;20430;-55
2023/01/06 03:12:16;;;;;;;3.50;1.80;;;6.50;99.90;;;;;;6120522;23;20403;-59
2023/01/06 03:14:47;;;;;;;1.80;1.00;;;6.50;99.90;;;;;;6120571;23;20431;-59
2023/01/06 03:17:14;;;;;;;3.13;1.40;;;6.50;99.90;;;;;;6121459;23;20396;-55
2023/01/06 03:19:43;;;;;;;2.00;1.33;;;6.50;99.90;;;;;;6121906;23;20427;-57
2023/01/06 03:22:12;;;;;;;3.53;1.10;;;6.50;99.90;;;;;;6122322;23;20439;-57
2023/01/06 03:24:39;;;;;;;3.43;1.40;;;6.50;99.90;;;;;;6121735;23;21010;-57
2023/01/06 03:27:07;;;;;;;2.40;1.17;;;6.50;99.90;;;;;;6121760;23;20399;-60
2023/01/06 03:29:36;;;;;;;5.00;1.33;;;6.50;99.90;;;;;;6120137;23;20427;-59
2023/01/06 03:32:07;;;;;;;5.00;3.63;;;6.50;99.90;;;;;;6120730;23;20396;-59
2023/01/06 03:34:51;;;;;;;1.13;1.00;;;6.50;99.90;;;;;;6119945;23;20376;-57
2023/01/06 03:37:25;;;;;;;5.60;1.20;;;6.60;99.90;;;;;;6120600;23;20427;-58
2023/01/06 03:39:58;;;;;;;6.93;1.33;;;6.60;99.90;;;;;;6119015;23;20387;-58
2023/01/06 03:45:32;;;;;;;2.10;1.03;;;6.50;99.90;;;;;;6120782;23;20371;-58
2023/01/06 03:48:07;;;;;;;1.80;1.13;;;6.50;99.90;;;;;;6120638;23;20395;-56
2023/01/06 03:50:40;;;;;;;2.50;1.50;;;6.50;99.90;;;;;;6119273;23;20422;-58
2023/01/06 03:53:17;;;;;;;4.07;1.10;;;6.50;99.90;;;;;;6119794;23;20383;-55
2023/01/06 03:55:50;;;;;;;4.80;1.17;;;6.40;99.90;;;;;;6119531;23;20399;-57
2023/01/06 03:58:23;;;;;;;6.73;1.93;;;6.40;99.90;;;;;;6119232;23;20372;-59
2023/01/06 04:00:51;;;;;;;1.83;0.90;;;6.40;99.90;;;;;;6120226;23;20396;-57
2023/01/06 04:03:29;;;;;;;1.10;0.83;;;6.40;99.90;;;;;;6120519;23;20432;-60
2023/01/06 04:05:58;;;;;;;3.57;1.03;;;6.50;99.90;;;;;;6119360;23;20408;-57
2023/01/06 04:08:24;;;;;;;1.20;0.90;;;6.50;99.90;;;;;;6118866;23;20395;-60
2023/01/06 04:10:51;;;;;;;3.43;1.60;;;6.50;99.90;;;;;;6119934;23;20392;-58
2023/01/06 04:13:17;;;;;;;1.40;0.93;;;6.50;99.90;;;;;;6118958;23;20426;-58
2023/01/06 04:15:45;;;;;;;4.03;1.30;;;6.50;99.90;;;;;;6120271;23;20407;-58
2023/01/06 04:18:13;;;;;;;1.20;1.00;;;6.50;99.90;;;;;;6119579;23;20211;-59
2023/01/06 04:20:42;;;;;;;4.73;1.43;;;6.50;99.90;;;;;;6120301;23;20443;-58
2023/01/06 04:23:11;;;;;;;5.00;1.50;;;6.50;99.90;;;;;;6119869;23;20466;-60
2023/01/06 04:25:38;;;;;;;4.47;1.50;;;6.50;99.90;;;;;;6119574;23;20408;-61
2023/01/06 04:28:06;;;;;;;5.17;1.30;;;6.60;99.90;;;;;;6119690;23;20435;-59
2023/01/06 04:30:32;;;;;;;5.63;2.83;;;6.60;99.90;;;;;;6120889;23;20430;-60
2023/01/06 04:32:59;;;;;;;3.33;1.57;;;6.60;99.90;;;;;;6119448;23;20442;-59
2023/01/06 04:35:26;;;;;;;4.37;2.37;;;6.60;99.90;;;;;;6119748;23;20388;-58
2023/01/06 04:37:53;;;;;;;2.03;1.27;;;6.60;99.90;;;;;;6119221;23;20403;-59
2023/01/06 04:40:21;;;;;;;2.37;1.10;;;6.70;99.90;;;;;;6119915;23;20395;-59
2023/01/06 04:45:41;;;;;;;1.20;0.90;;;6.70;99.90;;;;;;6086864;23;20959;-61
2023/01/06 04:48:08;;;;;;;3.87;1.30;;;6.60;99.90;;;;;;6122440;23;20399;-59
2023/01/06 04:50:36;;;;;;;3.33;1.73;;;6.60;99.90;;;;;;6121407;23;20432;-59
2023/01/06 04:53:04;;;;;;;6.50;1.23;;;6.50;99.90;;;;;;6122217;23;20391;-58
2023/01/06 04:55:33;;;;;;;1.57;1.10;;;6.50;99.90;;;;;;6121744;23;20458;-58
2023/01/06 04:58:00;;;;;;;4.43;1.43;;;6.50;99.90;;;;;;6121099;23;20407;-60
2023/01/06 05:00:26;;;;;;;3.80;1.50;;;6.50;99.90;;;;;;6120348;23;20435;-57
2023/01/06 05:02:53;;;;;;;2.63;1.50;;;6.40;99.90;;;;;;6121849;23;20447;-58
2023/01/06 05:05:21;;;;;;;3.30;1.77;;;6.40;99.90;;;;;;6122405;23;20447;-58
2023/01/06 05:07:48;;;;;;;5.60;2.03;;;6.40;99.90;;;;;;6121619;23;20411;-63
2023/01/06 05:10:15;;;;;;;2.33;1.30;;;6.40;99.90;;;;;;6121087;23;20459;-57
2023/01/06 05:12:45;;;;;;;5.90;1.57;;;6.40;99.90;;;;;;6121225;23;20402;-59
2023/01/06 05:15:12;;;;;;;2.90;1.50;;;6.40;99.90;;;;;;6120866;23;20408;-60
2023/01/06 05:17:39;;;;;;;1.77;1.30;;;6.40;99.90;;;;;;6110448;23;20392;-59
2023/01/06 05:20:07;;;;;;;3.10;1.30;;;6.40;99.90;;;;;;6123829;23;20407;-60
2023/01/06 05:22:34;;;;;;;4.70;1.50;;;6.50;99.90;;;;;;6122704;23;20511;-60
2023/01/06 05:25:00;;;;;;;2.80;1.30;;;6.50;99.90;;;;;;6122636;23;20403;-58
2023/01/06 05:27:29;;;;;;;3.87;1.60;;;6.50;99.90;;;;;;6123795;23;20419;-62
2023/01/06 05:29:57;;;;;;;2.43;1.50;;;6.50;99.90;;;;;;6123469;23;20403;-60
2023/01/06 05:32:24;;;;;;;1.70;1.00;;;6.50;99.90;;;;;;6122571;23;20436;-61
2023/01/06 05:34:53;;;;;;;5.87;1.50;;;6.50;99.90;;;;;;6122013;23;20439;-59
2023/01/06 05:37:20;;;;;;;4.50;1.77;;;6.50;99.90;;;;;;6121718;23;20412;-63
2023/01/06 05:39:47;;;;;;;3.00;1.37;;;6.50;99.90;;;;;;6121836;23;20413;-60
2023/01/06 05:42:16;;;;;;;5.87;1.17;;;6.40;99.90;;;;;;6121502;23;20447;-57
2023/01/06 05:44:43;;;;;;;1.70;1.10;;;6.40;99.90;;;;;;6121553;23;20404;-56
2023/01/06 05:47:21;;;;;;;2.53;1.37;;;6.40;99.90;;;;;;6121444;23;20423;-60
2023/01/06 05:49:52;;;;;;;3.00;1.73;;;6.40;99.90;;;;;;6121119;23;20419;-60
2023/01/06 05:52:19;;;;;;;3.93;1.57;;;6.40;99.90;;;;;;6121379;23;20438;-60
2023/01/06 05:54:46;;;;;;;3.50;1.93;;;6.30;99.90;;;;;;6122185;23;20410;-58
2023/01/06 05:57:13;;;;;;;3.73;1.80;;;6.30;99.90;;;;;;6121245;23;20499;-60
2023/01/06 05:59:40;;;;;;;3.70;1.50;;;6.40;99.90;;;;;;6122009;23;20392;-57
2023/01/06 06:02:07;;;;;;;5.23;1.80;;;6.30;99.90;;;;;;6120223;23;20446;-57
2023/01/06 06:04:35;;;;;;;1.83;1.40;;;6.30;99.90;;;;;;6123847;23;20415;-60
2023/01/06 06:07:02;;;;;;;2.47;1.63;;;6.30;99.90;;;;;;6122081;23;20398;-59
2023/01/06 06:09:29;;;;;;;3.73;1.67;;;6.30;99.90;;;;;;6121845;23;20439;-58
2023/01/06 06:11:56;;;;;;;4.30;1.50;;;6.40;99.90;;;;;;6121847;23;20399;-60
2023/01/06 06:14:24;;;;;;;6.00;1.60;;;6.40;99.90;;;;;;6121003;23;20432;-60
2023/01/06 06:16:52;;;;;;;12.33;2.33;;;6.40;99.90;;;;;;6121658;23;20878;-58
2023/01/06 06:19:19;;;;;;;2.10;1.70;;;6.40;99.90;;;;;;6121100;23;20442;-60
2023/01/06 06:21:47;;;;;;;1.73;1.33;;;6.50;99.90;;;;;;6110974;23;20403;-60
2023/01/06 06:24:14;;;;;;;2.47;1.60;;;6.50;99.90;;;;;;6114051;23;20432;-60
2023/01/06 06:26:41;;;;;;;2.60;2.17;;;6.50;99.90;;;;;;6120811;23;20418;-61
2023/01/06 06:29:08;;;;;;;3.20;1.73;;;6.60;99.90;;;;;;6121955;23;20720;-58
2023/01/06 06:31:35;;;;;;;4.37;1.80;;;6.60;99.90;;;;;;6122668;23;20380;-59
2023/01/06 06:34:04;;;;;;;5.17;2.20;;;6.60;99.90;;;;;;6111705;23;20399;-58
2023/01/06 06:36:38;;;;;;;3.70;1.33;;;6.60;99.90;;;;;;6120953;23;20447;-60
2023/01/06 06:39:06;;;;;;;3.37;1.80;;;6.60;99.90;;;;;;6121092;23;20395;-62
2023/01/06 06:41:35;;;;;;;4.10;1.83;;;6.60;99.90;;;;;;6120713;23;20384;-63
2023/01/06 06:44:04;;;;;;;7.97;1.90;;;6.60;99.90;;;;;;6119746;23;20480;-58
2023/01/06 06:46:32;;;;;;;7.20;1.90;;;6.60;99.90;;;;;;6120809;23;20403;-64
2023/01/06 06:48:59;;;;;;;6.00;2.60;;;6.60;99.90;;;;;;6122282;23;20439;-60
2023/01/06 06:51:26;;;;;;;2.13;1.43;;;6.60;99.90;;;;;;6122333;23;20397;-64
2023/01/06 06:53:53;;;;;;;7.60;2.30;;;6.60;99.90;;;;;;6122431;23;20399;-53
2023/01/06 06:56:21;;;;;;;3.57;3.27;;;6.60;99.90;;;;;;6123234;23;20432;-59
2023/01/06 06:58:50;;;;;;;6.93;2.57;;;6.50;99.90;;;;;;6123439;23;20411;-56
2023/01/06 07:01:19;;;;;;;4.03;2.80;;;6.50;99.90;;;;;;6123126;23;20414;-62
2023/01/06 07:03:46;;;;;;;7.93;2.70;;;6.50;99.90;;;;;;6122121;23;20439;-60
2023/01/06 07:06:16;;;;;;;4.10;2.27;;;6.50;99.90;;;;;;6121846;23;20423;-61
2023/01/06 07:08:47;;;;;;;4.20;2.80;;;6.50;99.90;;;;;;6113663;23;20408;-58
2023/01/06 07:11:14;;;;;;;5.23;2.57;;;6.50;99.90;;;;;;6121381;23;20446;-60
2023/01/06 07:13:43;;;;;;;5.37;3.00;;;6.50;99.90;;;;;;6120912;23;20427;-60
2023/01/06 07:16:10;;;;;;;11.17;3.17;;;6.50;99.90;;;;;;6120544;23;20423;-60
2023/01/06 07:18:37;;;;;;;3.80;2.40;;;6.60;99.90;;;;;;6120613;23;20424;-60
2023/01/06 07:21:05;;;;;;;6.90;3.07;;;6.60;99.90;;;;;;6120178;23;20418;-60
2023/01/06 07:23:33;;;;;;;9.73;4.47;;;6.60;99.90;;;;;;6121327;23;20447;-63
2023/01/06 07:26:01;;;;;;;5.17;2.20;;;6.60;99.90;;;;;;6121014;23;20407;-60
2023/01/06 07:28:32;;;;;;;4.43;3.00;;;6.70;99.90;;;;;;6112355;23;20380;-60
2023/01/06 07:31:02;;;;;;;5.43;3.70;;;6.70;99.90;;;;;;6120269;23;20424;-60
2023/01/06 07:33:32;;;;;;;4.83;3.70;;;6.60;99.90;;;;;;6120569;23;20779;-60
2023/01/06 07:35:59;;;;;;;8.73;3.13;;;6.60;99.90;;;;;;6120827;23;20427;-61
2023/01/06 07:38:26;;;;;;;10.37;3.47;;;6.60;99.90;;;;;;6120838;23;20415;-61
2023/01/06 07:40:53;;;;;;;6.07;3.13;;;6.60;99.90;;;;;;6120669;23;20407;-60
2023/01/06 07:43:20;;;;;;;4.67;3.60;;;6.60;99.90;;;;;;6120267;23;20463;-62
2023/01/06 07:45:47;;;;;;;5.47;3.13;;;6.60;99.90;;;;;;6120958;23;20404;-59
2023/01/06 07:48:21;;;;;;;10.10;3.87;;;6.60;99.90;;;;;;6121692;23;20468;-59
2023/01/06 07:50:48;;;;;;;7.53;4.97;;;6.70;99.90;;;;;;6121374;23;20416;-59
2023/01/06 07:53:15;;;;;;;5.73;4.03;;;6.70;99.90;;;;;;6111183;23;20427;-61
2023/01/06 07:55:45;;;;;;;9.07;4.40;;;6.70;99.90;;;;;;6115516;23;20504;-59
2023/01/06 07:58:12;;;;;;;10.23;4.60;;;6.70;99.90;;;;;;6121268;23;20400;-59
2023/01/06 08:00:39;;;;;;;8.30;4.20;;;6.70;99.90;;;;;;6121868;23;20391;-58
2023/01/06 08:03:07;;;;;;;7.20;4.20;;;6.70;99.90;;;;;;6120603;23;20479;-59
2023/01/06 08:05:40;;;;;;;10.67;4.90;;;6.80;99.90;;;;;;6120100;23;20426;-61
2023/01/06 08:08:07;;;;;;;5.37;3.70;;;6.80;99.90;;;;;;6119781;23;20432;-60
2023/01/06 08:10:34;;;;;;;7.87;4.23;;;6.80;99.90;;;;;;6120119;23;20404;-59
2023/01/06 08:13:01;;;;;;;8.93;4.07;;;6.80;99.90;;;;;;6120386;23;20427;-60
2023/01/06 08:15:28;;;;;;;10.43;4.80;;;6.90;99.90;;;;;;6119149;23;20411;-60
2023/01/06 08:17:55;;;;;;;6.10;4.47;;;6.90;99.90;;;;;;6111912;23;20415;-63
2023/01/06 08:20:23;;;;;;;8.40;4.23;;;6.90;99.90;;;;;;6120159;23;20428;-60
2023/01/06 08:22:51;;;;;;;8.90;4.20;;;6.90;99.90;;;;;;6112152;23;20476;-61
2023/01/06 08:25:18;;;;;;;5.53;3.97;;;6.90;99.90;;;;;;6120144;23;20436;-58
2023/01/06 08:27:45;;;;;;;5.97;4.80;;;6.90;99.90;;;;;;6120155;23;20844;-57
2023/01/06 08:30:20;;;;;;;7.63;4.73;;;6.90;99.90;;;;;;6119980;23;20625;-61
2023/01/06 08:32:47;;;;;;;8.37;4.60;;;7.00;99.90;;;;;;6120624;23;20384;-60
2023/01/06 08:35:14;;;;;;;10.57;3.90;;;7.00;99.90;;;;;;6119929;23;20434;-61
2023/01/06 08:37:41;;;;;;;8.37;3.50;;;7.10;99.90;;;;;;6120704;23;20408;-61
2023/01/06 08:40:12;;;;;;;6.93;3.50;;;7.10;99.90;;;;;;6120614;23;20403;-59
2023/01/06 08:42:39;;;;;;;7.37;4.70;;;7.10;99.90;;;;;;6119885;23;20380;-62
2023/01/06 08:45:07;;;;;;;7.43;5.40;;;7.10;99.90;;;;;;6117296;23;20703;-59
2023/01/06 08:47:35;;;;;;;12.10;4.47;;;7.10;99.90;;;;;;6116153;23;20494;-60
2023/01/06 08:50:02;;;;;;;12.90;5.33;;;7.20;99.90;;;;;;6120356;23;20412;-61
2023/01/06 08:52:32;;;;;;;9.80;4.30;;;7.20;99.90;;;;;;6120825;23;20407;-61
2023/01/06 08:55:02;;;;;;;9.43;5.00;;;7.30;99.90;;;;;;6120960;23;20403;-59
2023/01/06 08:57:31;;;;;;;11.63;4.17;;;7.30;99.90;;;;;;6114597;23;20446;-61
2023/01/06 08:59:59;;;;;;;10.30;5.07;;;7.30;99.90;;;;;;6121131;23;20404;-60
2023/01/06 09:02:29;;;;;;;9.63;5.47;;;7.40;99.90;;;;;;6121148;23;20418;-60
2023/01/06 09:04:58;;;;;;;9.00;6.00;;;7.30;99.90;;;;;;6120512;23;20464;-59
2023/01/06 09:07:25;;;;;;;12.23;6.00;;;7.40;99.90;;;;;;6120826;23;20431;-61
2023/01/06 09:09:52;;;;;;;8.50;5.60;;;7.40;99.90;;;;;;6120273;23;20403;-60
2023/01/06 09:12:19;;;;;;;17.90;7.17;;;7.40;99.90;;;;;;6120268;23;20435;-60
2023/01/06 09:14:54;;;;;;;8.50;5.67;;;7.50;99.90;;;;;;6120444;23;20399;-61
2023/01/06 09:17:21;;;;;;;7.30;5.80;;;7.60;99.90;;;;;;6120204;23;20431;-61
2023/01/06 09:19:50;;;;;;;13.57;5.70;;;7.60;99.90;;;;;;6120082;23;20388;-59
2023/01/06 09:22:17;;;;;;;11.40;6.43;;;7.60;99.90;;;;;;6119670;23;20425;-59
2023/01/06 09:24:44;;;;;;;7.20;4.90;;;7.60;99.90;;;;;;6119057;23;20471;-61
2023/01/06 09:27:11;;;;;;;7.77;4.50;;;7.60;99.90;;;;;;6121068;23;20411;-58
2023/01/06 09:29:38;;;;;;;10.20;6.07;;;7.70;99.90;;;;;;6107529;23;20414;-58
2023/01/06 09:32:06;;;;;;;9.90;5.60;;;7.70;99.90;;;;;;6119444;23;20435;-60
2023/01/06 09:34:33;;;;;;;11.83;5.57;;;7.70;99.90;;;;;;6119266;23;20431;-60
2023/01/06 09:37:00;;;;;;;10.20;4.80;;;7.70;99.90;;;;;;6120914;23;20518;-60
2023/01/06 09:39:27;;;;;;;6.03;5.10;;;7.70;99.90;;;;;;6113707;23;20435;-60
2023/01/06 09:42:30;;;;;;;10.67;7.00;;;7.80;99.90;;;;;;6122401;23;20411;-61
2023/01/06 09:45:02;;;;;;;7.40;5.50;;;7.90;99.90;;;;;;6117654;23;20434;-61
2023/01/06 09:47:36;;;;;;;6.00;4.27;;;8.00;99.90;;;;;;6122418;23;20477;-60
2023/01/06 09:50:08;;;;;;;11.73;6.37;;;8.10;99.90;;;;;;6122210;23;20439;-62
2023/01/06 09:52:40;;;;;;;15.30;6.53;;;8.20;99.90;;;;;;6122322;23;20419;-60
2023/01/06 09:55:14;;;;;;;8.67;4.73;;;8.20;99.90;;;;;;6122365;23;20424;-59
2023/01/06 09:57:44;;;;;;;7.80;5.67;;;8.20;99.90;;;;;;6122779;23;20388;-56
2023/01/06 10:00:25;;;;;;;9.73;6.03;;;8.20;99.90;;;;;;6122575;23;20451;-59
2023/01/06 10:02:56;;;;;;;12.30;6.17;;;8.30;99.90;;;;;;6122413;23;20832;-62
2023/01/06 10:05:35;;;;;;;16.60;6.00;;;8.30;99.90;;;;;;6122524;23;20407;-63
2023/01/06 10:08:10;;;;;;;8.90;5.17;;;8.20;99.90;;;;;;6121234;23;20428;-58
2023/01/06 10:10:49;;;;;;;9.77;5.73;;;8.20;99.90;;;;;;6121911;23;20427;-59
2023/01/06 10:13:32;;;;;;;9.03;6.13;;;8.30;99.90;;;;;;6121535;23;20397;-60
2023/01/06 10:16:06;;;;;;;13.27;6.83;;;8.40;99.90;;;;;;6121258;23;20431;-61
2023/01/06 10:18:43;;;;;;;13.30;7.20;;;8.30;99.90;;;;;;6121485;23;20419;-59
2023/01/06 10:21:21;;;;;;;8.97;5.40;;;8.30;99.90;;;;;;6120791;23;20419;-59
2023/01/06 10:24:12;;;;;;;8.00;5.90;;;8.30;99.90;;;;;;6121549;23;20407;-61
2023/01/06 10:26:48;;;;;;;10.00;7.00;;;8.40;99.90;;;;;;6121717;23;20431;-62
2023/01/06 10:29:17;;;;;;;15.20;6.03;;;8.40;99.90;;;;;;6120452;23;20923;-61
2023/01/06 10:31:46;;;;;;;12.37;7.17;;;8.40;99.90;;;;;;6121280;23;20432;-56
2023/01/06 10:34:20;;;;;;;16.60;8.13;;;8.50;99.90;;;;;;6121781;23;20375;-60
2023/01/06 10:36:54;;;;;;;11.03;6.90;;;8.50;99.90;;;;;;6121548;23;20523;-58
2023/01/06 10:39:26;;;;;;;15.23;6.43;;;8.60;99.90;;;;;;6120388;23;20388;-60
2023/01/06 10:44:41;;;;;;;16.20;7.10;;;8.80;99.90;;;;;;6118599;23;20443;-60
2023/01/06 10:47:14;;;;;;;14.00;7.60;;;8.80;99.90;;;;;;6121318;23;20404;-60
2023/01/06 10:49:42;;;;;;;11.37;8.13;;;8.90;99.90;;;;;;6121405;23;20404;-60
2023/01/06 10:52:14;;;;;;;15.93;6.90;;;9.10;99.90;;;;;;6122063;23;20418;-62
2023/01/06 10:54:43;;;;;;;12.20;6.67;;;9.10;99.90;;;;;;6122742;23;20403;-60
2023/01/06 10:57:20;;;;;;;12.20;7.13;;;9.20;99.90;;;;;;6121792;23;20427;-60
2023/01/06 11:00:11;;;;;;;8.40;6.23;;;9.20;99.90;;;;;;6120980;23;20383;-60
2023/01/06 11:02:42;;;;;;;12.73;5.63;;;9.20;99.90;;;;;;6121721;23;20428;-59
2023/01/06 11:05:18;;;;;;;9.30;5.90;;;9.30;99.90;;;;;;6120870;23;20428;-60
2023/01/06 11:07:51;;;;;;;11.27;6.17;;;9.30;99.90;;;;;;6121181;23;20384;-60
2023/01/06 11:10:38;;;;;;;10.10;5.80;;;9.40;99.90;;;;;;6121899;23;20396;-59
2023/01/06 11:13:21;;;;;;;9.63;7.03;;;9.40;99.90;;;;;;6121410;23;20400;-58
2023/01/06 11:15:48;;;;;;;7.73;6.13;;;9.50;99.90;;;;;;6121000;23;20391;-62
2023/01/06 11:18:21;;;;;;;8.20;5.07;;;9.60;99.90;;;;;;6122294;23;20416;-65
2023/01/06 11:21:03;;;;;;;10.30;6.63;;;9.70;99.90;;;;;;6123844;23;20407;-63
2023/01/06 11:23:30;;;;;;;10.30;5.43;;;9.60;99.90;;;;;;6123237;23;20451;-61
2023/01/06 11:26:16;;;;;;;6.20;4.30;;;9.70;99.90;;;;;;6122956;23;20403;-57
2023/01/06 11:28:45;;;;;;;9.50;5.40;;;9.70;99.90;;;;;;6122375;23;20459;-59
2023/01/06 11:31:19;;;;;;;10.57;5.00;;;9.70;99.90;;;;;;6122967;23;20392;-58
2023/01/06 11:33:54;;;;;;;10.83;7.93;;;9.70;99.90;;;;;;6123411;23;20360;-61
2023/01/06 11:36:24;;;;;;;10.03;6.67;;;9.80;99.90;;;;;;6124114;23;20404;-61
2023/01/06 11:38:59;;;;;;;12.73;5.40;;;9.80;99.90;;;;;;6124023;23;20388;-59
2023/01/06 11:41:31;;;;;;;8.30;4.70;;;9.80;99.90;;;;;;6123551;23;20435;-58
2023/01/06 11:44:10;;;;;;;9.97;6.50;;;9.80;99.90;;;;;;6122461;23;20515;-59
2023/01/06 11:46:39;;;;;;;10.90;5.20;;;9.80;99.90;;;;;;6123840;23;20434;-59
2023/01/06 11:49:12;;;;;;;8.73;5.00;;;9.90;99.90;;;;;;6124216;23;20427;-60
2023/01/06 11:51:50;;;;;;;6.70;4.93;;;9.90;99.90;;;;;;6124150;23;20416;-63
2023/01/06 11:54:31;;;;;;;6.63;4.47;;;9.90;99.90;;;;;;6123810;23;20419;-56
2023/01/06 11:57:09;;;;;;;8.20;4.70;;;10.00;99.90;;;;;;6116042;23;20432;-59
2023/01/06 11:59:51;;;;;;;10.00;5.17;;;10.00;99.90;;;;;;6122221;23;20403;-58
2023/01/06 12:02:25;;;;;;;7.30;4.67;;;10.10;99.90;;;;;;6122134;23;20419;-59
2023/01/06 12:04:53;;;;;;;12.60;5.37;;;10.10;99.90;;;;;;6121967;23;20428;-60
2023/01/06 12:07:29;;;;;;;6.07;4.10;;;10.10;99.90;;;;;;6122461;23;20438;-61
2023/01/06 12:10:01;;;;;;;7.30;4.80;;;10.10;99.90;;;;;;6122203;23;20387;-59
2023/01/06 12:12:28;;;;;;;15.80;4.40;;;10.10;99.90;;;;;;6121227;23;20408;-60
2023/01/06 12:14:56;;;;;;;7.20;4.60;;;10.10;99.90;;;;;;6121305;23;20407;-60
2023/01/06 12:17:35;;;;;;;6.20;4.13;;;10.20;99.90;;;;;;6121464;23;20411;-62
2023/01/06 12:20:05;;;;;;;6.20;4.23;;;10.20;99.90;;;;;;6121819;23;20395;-55
2023/01/06 12:22:38;;;;;;;6.07;4.27;;;10.20;99.90;;;;;;6121740;23;20427;-63
2023/01/06 12:25:12;;;;;;;6.30;4.43;;;10.20;99.90;;;;;;6122018;23;20415;-59
2023/01/06 12:27:44;;;;;;;6.27;4.30;;;10.30;99.90;;;;;;6122099;23;20435;-58
2023/01/06 12:30:18;;;;;;;7.40;4.83;;;10.30;99.90;;;;;;6122379;23;20424;-57
2023/01/06 12:32:49;;;;;;;6.47;3.77;;;10.30;99.90;;;;;;6122027;23;20438;-64
2023/01/06 12:35:21;;;;;;;6.03;4.20;;;10.30;99.90;;;;;;6122340;23;20404;-61
2023/01/06 12:37:54;;;;;;;9.53;4.70;;;10.40;99.90;;;;;;6121200;23;20411;-60
2023/01/06 12:40:27;;;;;;;6.83;5.17;;;10.40;99.90;;;;;;6120164;23;20398;-59
2023/01/06 12:43:00;;;;;;;5.63;3.97;;;10.40;99.90;;;;;;6120049;23;20387;-61
2023/01/06 12:45:36;;;;;;;5.77;4.53;;;10.50;99.90;;;;;;6119777;23;20427;-59
2023/01/06 12:48:11;;;;;;;8.80;4.33;;;10.50;99.90;;;;;;6119736;23;20394;-60
2023/01/06 12:50:45;;;;;;;5.30;3.60;;;10.50;99.90;;;;;;6119792;23;20439;-60
2023/01/06 12:53:19;;;;;;;5.37;3.37;;;10.50;99.90;;;;;;6120695;23;20388;-60
2023/01/06 12:55:56;;;;;;;6.13;3.93;;;10.50;99.90;;;;;;6119520;23;20388;-60
2023/01/06 12:58:32;;;;;;;4.90;3.87;;;10.50;99.90;;;;;;6106583;23;20404;-59
2023/01/06 13:01:04;;;;;;;7.00;4.40;;;10.60;99.90;;;;;;6109589;23;20391;-63
2023/01/06 13:04:00;;;;;;;5.30;3.40;;;10.60;99.90;;;;;;6119977;23;20388;-62
2023/01/06 13:07:02;;;;;;;3.13;2.83;;;10.60;99.90;;;;;;6121922;23;20403;-60
2023/01/06 13:09:44;;;;;;;8.33;4.63;;;10.60;99.90;;;;;;6122666;23;20426;-60
2023/01/06 13:12:25;;;;;;;12.00;4.13;;;10.70;99.90;;;;;;6123384;23;20442;-60
2023/01/06 13:14:59;;;;;;;7.90;3.27;;;10.70;99.90;;;;;;6124004;23;20427;-58
2023/01/06 13:17:33;;;;;;;4.17;2.37;;;10.70;99.90;;;;;;6123941;23;20398;-59
2023/01/06 13:20:04;;;;;;;5.23;2.87;;;10.70;99.90;;;;;;6123827;23;20435;-59
2023/01/06 13:22:48;;;;;;;2.67;2.37;;;10.70;99.90;;;;;;6123793;23;20389;-59
2023/01/06 13:25:33;;;;;;;4.27;2.37;;;10.70;99.90;;;;;;6112302;23;20451;-62
2023/01/06 13:28:08;;;;;;;2.37;1.60;;;10.70;99.90;;;;;;6123891;23;20379;-64